sensor_id;sensor_type;location;lat;lon;timestamp;P1;durP1;ratioP1;P2;durP2;ratioP2
30466;SDS011;17258;52.560;13.046;2023-06-10T00:00:34;3.67;;;2.15;;
30466;SDS011;17258;52.560;13.046;2023-06-10T00:10:36;1.83;;;1.70;;
30466;SDS011;17258;52.560;13.046;2023-06-10T00:20:38;2.70;;;2.38;;
30466;SDS011;17258;52.560;13.046;2023-06-10T00:30:39;3.25;;;1.65;;
30466;SDS011;17258;52.560;13.046;2023-06-10T00:40:39;3.27;;;2.97;;
30466;SDS011;17258;52.560;13.046;2023-06-10T00:50:41;4.05;;;2.15;;
30466;SDS011;17258;52.560;13.046;2023-06-10T01:00:41;3.20;;;2.30;;
30466;SDS011;17258;52.560;13.046;2023-06-10T01:10:43;4.10;;;2.13;;
30466;SDS011;17258;52.560;13.046;2023-06-10T01:20:53;7.82;;;2.33;;
30466;SDS011;17258;52.560;13.046;2023-06-10T01:31:15;4.10;;;2.00;;
30466;SDS011;17258;52.560;13.046;2023-06-10T01:51:24;1.73;;;1.60;;
30466;SDS011;17258;52.560;13.046;2023-06-10T02:01:25;1.98;;;1.77;;
30466;SDS011;17258;52.560;13.046;2023-06-10T02:11:26;3.97;;;1.90;;
30466;SDS011;17258;52.560;13.046;2023-06-10T02:21:27;2.00;;;1.60;;
30466;SDS011;17258;52.560;13.046;2023-06-10T02:31:27;3.83;;;1.83;;
30466;SDS011;17258;52.560;13.046;2023-06-10T02:41:28;2.35;;;1.83;;
30466;SDS011;17258;52.560;13.046;2023-06-10T02:51:29;2.58;;;1.90;;
30466;SDS011;17258;52.560;13.046;2023-06-10T03:01:30;3.10;;;1.83;;
30466;SDS011;17258;52.560;13.046;2023-06-10T03:11:31;2.10;;;1.90;;
30466;SDS011;17258;52.560;13.046;2023-06-10T03:21:32;2.53;;;1.53;;
30466;SDS011;17258;52.560;13.046;2023-06-10T03:31:34;4.13;;;2.00;;
30466;SDS011;17258;52.560;13.046;2023-06-10T03:41:39;2.58;;;1.52;;
30466;SDS011;17258;52.560;13.046;2023-06-10T03:51:40;2.00;;;1.63;;
30466;SDS011;17258;52.560;13.046;2023-06-10T04:01:40;2.15;;;1.48;;
30466;SDS011;17258;52.560;13.046;2023-06-10T04:11:41;3.40;;;2.20;;
30466;SDS011;17258;52.560;13.046;2023-06-10T04:21:42;4.68;;;1.83;;
30466;SDS011;17258;52.560;13.046;2023-06-10T04:31:43;3.70;;;2.33;;
30466;SDS011;17258;52.560;13.046;2023-06-10T04:41:46;3.95;;;2.10;;
30466;SDS011;17258;52.560;13.046;2023-06-10T04:51:46;2.63;;;1.93;;
30466;SDS011;17258;52.560;13.046;2023-06-10T05:01:47;5.00;;;2.25;;
30466;SDS011;17258;52.560;13.046;2023-06-10T05:11:48;2.47;;;2.17;;
30466;SDS011;17258;52.560;13.046;2023-06-10T05:21:53;2.80;;;1.83;;
30466;SDS011;17258;52.560;13.046;2023-06-10T05:31:54;4.87;;;2.30;;
30466;SDS011;17258;52.560;13.046;2023-06-10T05:42:00;2.97;;;2.35;;
30466;SDS011;17258;52.560;13.046;2023-06-10T05:52:02;5.03;;;2.78;;
30466;SDS011;17258;52.560;13.046;2023-06-10T06:02:03;2.40;;;2.08;;
30466;SDS011;17258;52.560;13.046;2023-06-10T06:12:04;3.85;;;2.63;;
30466;SDS011;17258;52.560;13.046;2023-06-10T06:22:08;4.82;;;2.75;;
30466;SDS011;17258;52.560;13.046;2023-06-10T06:32:09;3.23;;;2.93;;
30466;SDS011;17258;52.560;13.046;2023-06-10T06:42:09;3.87;;;3.50;;
30466;SDS011;17258;52.560;13.046;2023-06-10T06:52:10;3.90;;;2.88;;
30466;SDS011;17258;52.560;13.046;2023-06-10T07:02:20;3.30;;;3.00;;
30466;SDS011;17258;52.560;13.046;2023-06-10T07:12:23;4.32;;;3.13;;
30466;SDS011;17258;52.560;13.046;2023-06-10T07:22:24;3.30;;;3.05;;
30466;SDS011;17258;52.560;13.046;2023-06-10T07:32:25;7.30;;;3.40;;
30466;SDS011;17258;52.560;13.046;2023-06-10T07:42:26;3.70;;;3.17;;
30466;SDS011;17258;52.560;13.046;2023-06-10T07:52:26;5.40;;;3.57;;
30466;SDS011;17258;52.560;13.046;2023-06-10T08:02:28;3.47;;;3.10;;
30466;SDS011;17258;52.560;13.046;2023-06-10T08:12:29;2.57;;;2.37;;
30466;SDS011;17258;52.560;13.046;2023-06-10T08:22:30;3.80;;;2.97;;
30466;SDS011;17258;52.560;13.046;2023-06-10T08:32:31;3.13;;;2.85;;
30466;SDS011;17258;52.560;13.046;2023-06-10T08:42:43;7.80;;;2.90;;
30466;SDS011;17258;52.560;13.046;2023-06-10T08:53:07;5.03;;;2.85;;
30466;SDS011;17258;52.560;13.046;2023-06-10T09:03:08;8.55;;;3.13;;
30466;SDS011;17258;52.560;13.046;2023-06-10T09:13:09;4.53;;;2.97;;
30466;SDS011;17258;52.560;13.046;2023-06-10T09:23:10;3.87;;;3.03;;
30466;SDS011;17258;52.560;13.046;2023-06-10T09:33:11;3.78;;;3.33;;
30466;SDS011;17258;52.560;13.046;2023-06-10T09:43:15;3.63;;;3.33;;
30466;SDS011;17258;52.560;13.046;2023-06-10T09:53:19;5.03;;;4.60;;
30466;SDS011;17258;52.560;13.046;2023-06-10T10:03:24;4.25;;;3.95;;
30466;SDS011;17258;52.560;13.046;2023-06-10T10:13:24;5.18;;;4.72;;
30466;SDS011;17258;52.560;13.046;2023-06-10T10:23:29;19.75;;;18.48;;
30466;SDS011;17258;52.560;13.046;2023-06-10T10:33:40;20.30;;;18.52;;
30466;SDS011;17258;52.560;13.046;2023-06-10T10:43:56;16.13;;;15.15;;
30466;SDS011;17258;52.560;13.046;2023-06-10T10:54:13;14.23;;;13.23;;
30466;SDS011;17258;52.560;13.046;2023-06-10T11:04:14;19.13;;;13.90;;
30466;SDS011;17258;52.560;13.046;2023-06-10T11:14:27;12.27;;;11.15;;
30466;SDS011;17258;52.560;13.046;2023-06-10T11:24:30;12.75;;;12.00;;
30466;SDS011;17258;52.560;13.046;2023-06-10T11:34:33;5.45;;;4.85;;
30466;SDS011;17258;52.560;13.046;2023-06-10T11:44:34;8.50;;;8.00;;
30466;SDS011;17258;52.560;13.046;2023-06-10T11:54:38;13.27;;;4.13;;
30466;SDS011;17258;52.560;13.046;2023-06-10T12:04:38;5.93;;;3.72;;
30466;SDS011;17258;52.560;13.046;2023-06-10T12:24:59;10.20;;;9.60;;
30466;SDS011;17258;52.560;13.046;2023-06-10T12:35:03;7.10;;;6.40;;
30466;SDS011;17258;52.560;13.046;2023-06-10T12:45:07;11.05;;;10.40;;
30466;SDS011;17258;52.560;13.046;2023-06-10T12:55:10;2.60;;;2.40;;
30466;SDS011;17258;52.560;13.046;2023-06-10T13:05:10;13.07;;;12.37;;
30466;SDS011;17258;52.560;13.046;2023-06-10T13:15:11;2.97;;;2.70;;
30466;SDS011;17258;52.560;13.046;2023-06-10T13:25:13;4.15;;;3.83;;
30466;SDS011;17258;52.560;13.046;2023-06-10T13:35:13;4.33;;;3.87;;
30466;SDS011;17258;52.560;13.046;2023-06-10T13:45:14;4.10;;;3.70;;
30466;SDS011;17258;52.560;13.046;2023-06-10T13:55:15;3.80;;;3.55;;
30466;SDS011;17258;52.560;13.046;2023-06-10T14:05:17;6.50;;;5.50;;
30466;SDS011;17258;52.560;13.046;2023-06-10T14:15:23;9.87;;;3.97;;
30466;SDS011;17258;52.560;13.046;2023-06-10T14:25:24;26.02;;;23.95;;
30466;SDS011;17258;52.560;13.046;2023-06-10T14:35:25;8.95;;;8.35;;
30466;SDS011;17258;52.560;13.046;2023-06-10T14:45:26;3.83;;;3.50;;
30466;SDS011;17258;52.560;13.046;2023-06-10T14:55:30;3.72;;;3.17;;
30466;SDS011;17258;52.560;13.046;2023-06-10T15:05:30;5.23;;;3.17;;
30466;SDS011;17258;52.560;13.046;2023-06-10T15:15:33;3.72;;;3.42;;
30466;SDS011;17258;52.560;13.046;2023-06-10T15:25:34;3.23;;;2.93;;
30466;SDS011;17258;52.560;13.046;2023-06-10T15:35:34;2.17;;;1.97;;
30466;SDS011;17258;52.560;13.046;2023-06-10T15:45:35;3.00;;;2.63;;
30466;SDS011;17258;52.560;13.046;2023-06-10T15:55:36;2.33;;;2.17;;
30466;SDS011;17258;52.560;13.046;2023-06-10T16:05:39;2.78;;;2.58;;
30466;SDS011;17258;52.560;13.046;2023-06-10T16:15:43;2.20;;;2.10;;
30466;SDS011;17258;52.560;13.046;2023-06-10T16:25:44;3.17;;;2.88;;
30466;SDS011;17258;52.560;13.046;2023-06-10T16:35:45;2.78;;;2.58;;
30466;SDS011;17258;52.560;13.046;2023-06-10T16:45:45;3.67;;;2.43;;
30466;SDS011;17258;52.560;13.046;2023-06-10T16:55:49;3.50;;;3.20;;
30466;SDS011;17258;52.560;13.046;2023-06-10T17:05:52;3.05;;;2.72;;
30466;SDS011;17258;52.560;13.046;2023-06-10T17:15:56;2.70;;;2.43;;
30466;SDS011;17258;52.560;13.046;2023-06-10T17:36:00;2.55;;;2.35;;
30466;SDS011;17258;52.560;13.046;2023-06-10T17:46:01;2.67;;;2.47;;
30466;SDS011;17258;52.560;13.046;2023-06-10T17:56:02;4.25;;;3.28;;
30466;SDS011;17258;52.560;13.046;2023-06-10T18:06:05;2.92;;;2.65;;
30466;SDS011;17258;52.560;13.046;2023-06-10T18:16:06;2.40;;;2.25;;
30466;SDS011;17258;52.560;13.046;2023-06-10T18:26:07;2.77;;;2.57;;
30466;SDS011;17258;52.560;13.046;2023-06-10T18:36:07;2.20;;;2.10;;
30466;SDS011;17258;52.560;13.046;2023-06-10T18:46:11;3.30;;;3.00;;
30466;SDS011;17258;52.560;13.046;2023-06-10T18:56:12;5.07;;;3.73;;
30466;SDS011;17258;52.560;13.046;2023-06-10T19:06:13;10.95;;;5.70;;
30466;SDS011;17258;52.560;13.046;2023-06-10T19:16:14;3.77;;;2.73;;
30466;SDS011;17258;52.560;13.046;2023-06-10T19:26:15;2.90;;;2.63;;
30466;SDS011;17258;52.560;13.046;2023-06-10T19:36:15;2.73;;;2.03;;
30466;SDS011;17258;52.560;13.046;2023-06-10T19:46:16;3.65;;;2.17;;
30466;SDS011;17258;52.560;13.046;2023-06-10T19:56:20;2.35;;;2.10;;
30466;SDS011;17258;52.560;13.046;2023-06-10T20:06:21;2.33;;;1.98;;
30466;SDS011;17258;52.560;13.046;2023-06-10T20:16:22;4.73;;;1.97;;
30466;SDS011;17258;52.560;13.046;2023-06-10T20:26:24;3.72;;;2.03;;
30466;SDS011;17258;52.560;13.046;2023-06-10T20:36:25;2.50;;;1.97;;
30466;SDS011;17258;52.560;13.046;2023-06-10T20:46:26;2.72;;;2.10;;
30466;SDS011;17258;52.560;13.046;2023-06-10T20:56:26;2.23;;;1.63;;
30466;SDS011;17258;52.560;13.046;2023-06-10T21:06:27;2.17;;;1.97;;
30466;SDS011;17258;52.560;13.046;2023-06-10T21:16:27;1.47;;;1.37;;
30466;SDS011;17258;52.560;13.046;2023-06-10T21:26:30;2.50;;;1.52;;
30466;SDS011;17258;52.560;13.046;2023-06-10T21:36:32;3.30;;;1.73;;
30466;SDS011;17258;52.560;13.046;2023-06-10T21:46:33;1.73;;;1.63;;
30466;SDS011;17258;52.560;13.046;2023-06-10T21:56:33;2.08;;;1.52;;
30466;SDS011;17258;52.560;13.046;2023-06-10T22:06:34;1.70;;;1.60;;
30466;SDS011;17258;52.560;13.046;2023-06-10T22:16:36;2.08;;;1.88;;
30466;SDS011;17258;52.560;13.046;2023-06-10T22:26:36;2.05;;;1.63;;
30466;SDS011;17258;52.560;13.046;2023-06-10T22:36:37;2.47;;;1.83;;
30466;SDS011;17258;52.560;13.046;2023-06-10T22:46:38;2.57;;;1.67;;
30466;SDS011;17258;52.560;13.046;2023-06-10T22:56:38;4.83;;;1.77;;
30466;SDS011;17258;52.560;13.046;2023-06-10T23:06:39;1.40;;;1.30;;
30466;SDS011;17258;52.560;13.046;2023-06-10T23:16:40;9.80;;;1.77;;
30466;SDS011;17258;52.560;13.046;2023-06-10T23:26:44;1.95;;;1.60;;
30466;SDS011;17258;52.560;13.046;2023-06-10T23:36:47;2.10;;;1.60;;
30466;SDS011;17258;52.560;13.046;2023-06-10T23:46:47;2.13;;;1.77;;
30466;SDS011;17258;52.560;13.046;2023-06-10T23:56:51;1.80;;;1.57;;
